Terminal Aerodrome Forecast
Issued by NWS Twin Cities, MN

Home | Current Version | Previous Version | Graphics & Text | Print | Product List | Glossary On
Versions: 1 2 3 4 5 6 7 8 9 10 11 12 13 14 15 16 17 18 19 20 21 22 23 24 25 26 27 28
000
FTUS43 KMPX 240255 AAA
TAFMSP
TAF AMD
KMSP 240255Z 2403/2506 21015G24KT P6SM SCT050 OVC100
     FM240800 24014G20KT P6SM BKN050 OVC090
     FM241100 27013G20KT P6SM -SN SCT025 OVC040
      TEMPO 2411/2414 3SM -SN BKN025
     FM241500 31016G26KT P6SM SCT025
     FM250000 31012KT P6SM FEW030=

USA.gov is the U.S. government's official web portal to all federal, state and local government web resources and services.